Terminal Aerodrome Forecast
Issued by NWS

Home | Current Version | Previous Version | Text Only | Print | Product List | Glossary On
Versions: 1 2 3 4 5 6 7 8 9 10 11 12 13 14 15 16 17 18 19 20 21 22 23 24 25 26 27 28 29 30 31 32 33
000
FTAK31 PANC 190540
TAFADL
TAF
PADL 190540Z 1906/2006 13011KT P6SM VCSH SCT020
     FM191000 07013KT P6SM -SHRA FEW003 BKN015 OVC025
     FM191800 15015G25KT P6SM -SHSNRA BKN010 OVC020
     FM200000 19020G28KT P6SM -SHSN BKN030 BKN050
      AMD LTD TO CLD VIS AND WIND 1907/1916=

USA.gov is the U.S. government's official web portal to all federal, state and local government web resources and services.